sensor_id;sensor_type;location;lat;lon;timestamp;temperature;humidity
25983;DHT22;13773;48.868;10.730;2024-03-23T00:55:53;7.80;99.90
25983;DHT22;13773;48.868;10.730;2024-03-23T00:58:19;7.70;99.90
25983;DHT22;13773;48.868;10.730;2024-03-23T01:00:45;7.60;99.90
25983;DHT22;13773;48.868;10.730;2024-03-23T01:03:10;7.60;99.90
25983;DHT22;13773;48.868;10.730;2024-03-23T01:05:36;7.70;99.90
25983;DHT22;13773;48.868;10.730;2024-03-23T01:08:02;7.70;99.90
25983;DHT22;13773;48.868;10.730;2024-03-23T01:10:27;7.60;99.90
25983;DHT22;13773;48.868;10.730;2024-03-23T01:12:53;7.50;99.90
25983;DHT22;13773;48.868;10.730;2024-03-23T01:15:19;7.70;99.90
25983;DHT22;13773;48.868;10.730;2024-03-23T01:17:44;7.80;99.90
25983;DHT22;13773;48.868;10.730;2024-03-23T01:20:10;7.80;99.90
25983;DHT22;13773;48.868;10.730;2024-03-23T01:22:36;7.70;99.90
25983;DHT22;13773;48.868;10.730;2024-03-23T01:25:01;7.80;99.90
25983;DHT22;13773;48.868;10.730;2024-03-23T01:27:27;7.70;99.90
25983;DHT22;13773;48.868;10.730;2024-03-23T01:29:53;7.70;99.90
25983;DHT22;13773;48.868;10.730;2024-03-23T01:32:19;7.70;99.90
25983;DHT22;13773;48.868;10.730;2024-03-23T01:34:45;7.70;99.90
25983;DHT22;13773;48.868;10.730;2024-03-23T01:37:10;7.60;99.90
25983;DHT22;13773;48.868;10.730;2024-03-23T01:39:36;7.50;99.90
25983;DHT22;13773;48.868;10.730;2024-03-23T01:42:02;7.40;99.90
25983;DHT22;13773;48.868;10.730;2024-03-23T01:44:28;7.40;99.90
25983;DHT22;13773;48.868;10.730;2024-03-23T01:46:53;7.40;99.90
25983;DHT22;13773;48.868;10.730;2024-03-23T01:49:19;7.50;99.90
25983;DHT22;13773;48.868;10.730;2024-03-23T01:51:45;7.50;99.90
25983;DHT22;13773;48.868;10.730;2024-03-23T01:54:11;7.60;99.90
25983;DHT22;13773;48.868;10.730;2024-03-23T01:56:37;7.70;99.90
25983;DHT22;13773;48.868;10.730;2024-03-23T01:59:06;7.80;99.90
25983;DHT22;13773;48.868;10.730;2024-03-23T02:01:32;7.80;99.90
25983;DHT22;13773;48.868;10.730;2024-03-23T02:04:01;8.00;99.90
25983;DHT22;13773;48.868;10.730;2024-03-23T02:06:27;8.10;99.90
25983;DHT22;13773;48.868;10.730;2024-03-23T02:08:54;8.20;99.90
25983;DHT22;13773;48.868;10.730;2024-03-23T02:11:20;8.40;99.90
25983;DHT22;13773;48.868;10.730;2024-03-23T02:13:45;8.60;99.90
25983;DHT22;13773;48.868;10.730;2024-03-23T02:16:11;8.80;99.90
25983;DHT22;13773;48.868;10.730;2024-03-23T02:18:38;8.90;99.90
25983;DHT22;13773;48.868;10.730;2024-03-23T02:21:04;8.90;99.90
25983;DHT22;13773;48.868;10.730;2024-03-23T02:23:30;9.00;99.90
25983;DHT22;13773;48.868;10.730;2024-03-23T02:25:55;9.00;99.90
25983;DHT22;13773;48.868;10.730;2024-03-23T02:28:21;9.10;99.90
25983;DHT22;13773;48.868;10.730;2024-03-23T02:30:49;9.10;99.90
25983;DHT22;13773;48.868;10.730;2024-03-23T02:33:15;9.00;99.90
25983;DHT22;13773;48.868;10.730;2024-03-23T02:35:41;9.00;99.90
25983;DHT22;13773;48.868;10.730;2024-03-23T02:38:07;8.90;99.90
25983;DHT22;13773;48.868;10.730;2024-03-23T02:40:32;9.00;99.90
25983;DHT22;13773;48.868;10.730;2024-03-23T02:42:58;8.90;99.90
25983;DHT22;13773;48.868;10.730;2024-03-23T02:45:24;9.00;99.90
25983;DHT22;13773;48.868;10.730;2024-03-23T02:47:49;8.90;99.90
25983;DHT22;13773;48.868;10.730;2024-03-23T02:50:20;8.90;99.90
25983;DHT22;13773;48.868;10.730;2024-03-23T02:52:46;9.00;99.90
25983;DHT22;13773;48.868;10.730;2024-03-23T02:55:12;9.00;99.90
25983;DHT22;13773;48.868;10.730;2024-03-23T02:57:38;9.20;99.90
25983;DHT22;13773;48.868;10.730;2024-03-23T03:00:04;9.30;99.90
25983;DHT22;13773;48.868;10.730;2024-03-23T03:02:31;9.10;99.90
25983;DHT22;13773;48.868;10.730;2024-03-23T03:04:57;9.20;99.90
25983;DHT22;13773;48.868;10.730;2024-03-23T03:07:23;9.20;99.90
25983;DHT22;13773;48.868;10.730;2024-03-23T03:09:48;9.20;99.90
25983;DHT22;13773;48.868;10.730;2024-03-23T03:12:14;9.30;99.90
25983;DHT22;13773;48.868;10.730;2024-03-23T03:14:40;9.30;99.90
25983;DHT22;13773;48.868;10.730;2024-03-23T03:17:05;9.40;99.90
25983;DHT22;13773;48.868;10.730;2024-03-23T03:19:31;9.50;99.90
25983;DHT22;13773;48.868;10.730;2024-03-23T03:21:57;9.50;99.90
25983;DHT22;13773;48.868;10.730;2024-03-23T03:24:23;9.80;99.90
25983;DHT22;13773;48.868;10.730;2024-03-23T03:26:49;9.90;99.90
25983;DHT22;13773;48.868;10.730;2024-03-23T03:29:15;10.00;99.90
25983;DHT22;13773;48.868;10.730;2024-03-23T03:31:42;10.10;99.90
25983;DHT22;13773;48.868;10.730;2024-03-23T03:34:07;10.10;99.90
25983;DHT22;13773;48.868;10.730;2024-03-23T03:36:33;10.20;99.90
25983;DHT22;13773;48.868;10.730;2024-03-23T03:38:59;10.40;99.90
25983;DHT22;13773;48.868;10.730;2024-03-23T03:41:25;10.40;99.90
25983;DHT22;13773;48.868;10.730;2024-03-23T03:43:50;10.60;99.90
25983;DHT22;13773;48.868;10.730;2024-03-23T03:46:16;10.80;99.90
25983;DHT22;13773;48.868;10.730;2024-03-23T03:48:42;10.70;99.90
25983;DHT22;13773;48.868;10.730;2024-03-23T03:51:10;10.60;99.90
25983;DHT22;13773;48.868;10.730;2024-03-23T03:53:36;10.70;99.90
25983;DHT22;13773;48.868;10.730;2024-03-23T03:56:02;10.80;99.90
25983;DHT22;13773;48.868;10.730;2024-03-23T03:58:28;10.60;99.90
25983;DHT22;13773;48.868;10.730;2024-03-23T04:00:53;10.70;99.90
25983;DHT22;13773;48.868;10.730;2024-03-23T04:03:19;10.60;99.90
25983;DHT22;13773;48.868;10.730;2024-03-23T04:05:53;10.60;99.90
25983;DHT22;13773;48.868;10.730;2024-03-23T04:08:19;10.70;99.90
25983;DHT22;13773;48.868;10.730;2024-03-23T04:10:45;10.50;99.90
25983;DHT22;13773;48.868;10.730;2024-03-23T04:13:11;10.50;99.90
25983;DHT22;13773;48.868;10.730;2024-03-23T04:15:37;10.50;99.90
25983;DHT22;13773;48.868;10.730;2024-03-23T04:18:03;10.40;99.90
25983;DHT22;13773;48.868;10.730;2024-03-23T04:20:28;10.40;99.90
25983;DHT22;13773;48.868;10.730;2024-03-23T04:22:54;10.40;99.90
25983;DHT22;13773;48.868;10.730;2024-03-23T04:25:20;10.30;99.90
25983;DHT22;13773;48.868;10.730;2024-03-23T04:27:45;10.30;99.90
25983;DHT22;13773;48.868;10.730;2024-03-23T04:30:12;10.40;99.90
25983;DHT22;13773;48.868;10.730;2024-03-23T04:32:38;10.30;99.90
25983;DHT22;13773;48.868;10.730;2024-03-23T04:35:04;10.30;99.90
25983;DHT22;13773;48.868;10.730;2024-03-23T04:37:35;10.30;99.90
25983;DHT22;13773;48.868;10.730;2024-03-23T04:40:01;10.50;99.90
25983;DHT22;13773;48.868;10.730;2024-03-23T04:42:28;10.30;99.90
25983;DHT22;13773;48.868;10.730;2024-03-23T04:44:54;10.50;99.90
25983;DHT22;13773;48.868;10.730;2024-03-23T04:47:19;10.60;99.90
25983;DHT22;13773;48.868;10.730;2024-03-23T04:49:45;10.70;99.90
25983;DHT22;13773;48.868;10.730;2024-03-23T04:52:11;10.70;99.90
25983;DHT22;13773;48.868;10.730;2024-03-23T04:54:37;10.60;99.90
25983;DHT22;13773;48.868;10.730;2024-03-23T04:59:33;10.60;99.90
25983;DHT22;13773;48.868;10.730;2024-03-23T05:01:59;10.50;99.90
25983;DHT22;13773;48.868;10.730;2024-03-23T05:04:25;10.40;99.90
25983;DHT22;13773;48.868;10.730;2024-03-23T05:06:51;10.40;99.90
25983;DHT22;13773;48.868;10.730;2024-03-23T05:09:16;10.50;99.90
25983;DHT22;13773;48.868;10.730;2024-03-23T05:11:42;10.40;99.90
25983;DHT22;13773;48.868;10.730;2024-03-23T05:14:08;10.30;99.90
25983;DHT22;13773;48.868;10.730;2024-03-23T05:16:34;10.20;99.90
25983;DHT22;13773;48.868;10.730;2024-03-23T05:19:00;10.30;99.90
25983;DHT22;13773;48.868;10.730;2024-03-23T05:21:26;10.40;99.90
25983;DHT22;13773;48.868;10.730;2024-03-23T05:23:54;10.40;99.90
25983;DHT22;13773;48.868;10.730;2024-03-23T05:26:19;10.30;99.90
25983;DHT22;13773;48.868;10.730;2024-03-23T05:28:45;10.30;99.90
25983;DHT22;13773;48.868;10.730;2024-03-23T05:31:11;10.30;99.90
25983;DHT22;13773;48.868;10.730;2024-03-23T05:33:37;10.30;99.90
25983;DHT22;13773;48.868;10.730;2024-03-23T05:36:04;10.30;99.90
25983;DHT22;13773;48.868;10.730;2024-03-23T05:38:30;10.20;99.90
25983;DHT22;13773;48.868;10.730;2024-03-23T05:40:59;10.20;99.90
25983;DHT22;13773;48.868;10.730;2024-03-23T05:43:26;10.20;99.90
25983;DHT22;13773;48.868;10.730;2024-03-23T05:45:55;10.20;99.90
25983;DHT22;13773;48.868;10.730;2024-03-23T05:48:21;10.30;99.90
25983;DHT22;13773;48.868;10.730;2024-03-23T05:50:48;10.10;99.90
25983;DHT22;13773;48.868;10.730;2024-03-23T05:53:15;10.20;99.90
25983;DHT22;13773;48.868;10.730;2024-03-23T05:55:41;10.30;99.90
25983;DHT22;13773;48.868;10.730;2024-03-23T05:58:06;10.20;99.90
25983;DHT22;13773;48.868;10.730;2024-03-23T06:00:32;10.30;99.90
25983;DHT22;13773;48.868;10.730;2024-03-23T06:02:58;10.30;99.90
25983;DHT22;13773;48.868;10.730;2024-03-23T06:05:23;10.40;99.90
25983;DHT22;13773;48.868;10.730;2024-03-23T06:07:49;10.40;99.90
25983;DHT22;13773;48.868;10.730;2024-03-23T06:10:15;10.50;99.90
25983;DHT22;13773;48.868;10.730;2024-03-23T06:12:41;10.70;99.90
25983;DHT22;13773;48.868;10.730;2024-03-23T06:15:07;10.80;99.90
25983;DHT22;13773;48.868;10.730;2024-03-23T06:17:38;11.10;99.90
25983;DHT22;13773;48.868;10.730;2024-03-23T06:20:05;11.20;99.90
25983;DHT22;13773;48.868;10.730;2024-03-23T06:22:33;11.50;99.90
25983;DHT22;13773;48.868;10.730;2024-03-23T06:24:59;11.30;99.90
25983;DHT22;13773;48.868;10.730;2024-03-23T06:27:25;10.80;99.90
25983;DHT22;13773;48.868;10.730;2024-03-23T06:29:51;10.50;99.90
25983;DHT22;13773;48.868;10.730;2024-03-23T06:32:17;10.40;99.90
25983;DHT22;13773;48.868;10.730;2024-03-23T06:34:42;10.30;99.90
25983;DHT22;13773;48.868;10.730;2024-03-23T06:37:08;10.30;99.90
25983;DHT22;13773;48.868;10.730;2024-03-23T06:39:38;10.20;99.90
25983;DHT22;13773;48.868;10.730;2024-03-23T06:42:04;9.80;99.90
25983;DHT22;13773;48.868;10.730;2024-03-23T06:44:31;9.70;99.90
25983;DHT22;13773;48.868;10.730;2024-03-23T06:46:57;9.80;99.90
25983;DHT22;13773;48.868;10.730;2024-03-23T06:49:23;9.70;99.90
25983;DHT22;13773;48.868;10.730;2024-03-23T06:51:49;9.90;99.90
25983;DHT22;13773;48.868;10.730;2024-03-23T06:54:15;9.80;99.90
25983;DHT22;13773;48.868;10.730;2024-03-23T06:56:41;9.20;99.90
25983;DHT22;13773;48.868;10.730;2024-03-23T06:59:07;8.80;99.90
25983;DHT22;13773;48.868;10.730;2024-03-23T07:01:33;8.70;99.90
25983;DHT22;13773;48.868;10.730;2024-03-23T07:03:58;8.50;99.90
25983;DHT22;13773;48.868;10.730;2024-03-23T07:06:24;8.30;99.90
25983;DHT22;13773;48.868;10.730;2024-03-23T07:08:50;8.10;99.90
25983;DHT22;13773;48.868;10.730;2024-03-23T07:11:23;8.00;99.90
25983;DHT22;13773;48.868;10.730;2024-03-23T07:13:53;7.90;99.90
25983;DHT22;13773;48.868;10.730;2024-03-23T07:16:22;7.80;99.90
25983;DHT22;13773;48.868;10.730;2024-03-23T07:18:47;7.80;99.90
25983;DHT22;13773;48.868;10.730;2024-03-23T07:21:15;7.70;99.90
25983;DHT22;13773;48.868;10.730;2024-03-23T07:23:44;7.70;99.90
25983;DHT22;13773;48.868;10.730;2024-03-23T07:26:12;7.60;99.90
25983;DHT22;13773;48.868;10.730;2024-03-23T07:28:38;7.60;99.90
25983;DHT22;13773;48.868;10.730;2024-03-23T07:31:10;7.50;99.90
25983;DHT22;13773;48.868;10.730;2024-03-23T07:33:37;7.60;99.90
25983;DHT22;13773;48.868;10.730;2024-03-23T07:36:04;7.60;99.90
25983;DHT22;13773;48.868;10.730;2024-03-23T07:38:31;7.60;99.90
25983;DHT22;13773;48.868;10.730;2024-03-23T07:41:23;7.60;99.90
25983;DHT22;13773;48.868;10.730;2024-03-23T07:43:49;7.70;99.90
25983;DHT22;13773;48.868;10.730;2024-03-23T07:46:16;7.70;99.90
25983;DHT22;13773;48.868;10.730;2024-03-23T07:48:42;7.90;99.90
25983;DHT22;13773;48.868;10.730;2024-03-23T07:53:34;8.00;99.90
25983;DHT22;13773;48.868;10.730;2024-03-23T07:56:04;8.00;99.90
25983;DHT22;13773;48.868;10.730;2024-03-23T07:58:30;8.00;99.90
25983;DHT22;13773;48.868;10.730;2024-03-23T08:01:02;8.00;99.90
25983;DHT22;13773;48.868;10.730;2024-03-23T08:03:28;7.90;99.90
25983;DHT22;13773;48.868;10.730;2024-03-23T08:05:54;8.00;99.90
25983;DHT22;13773;48.868;10.730;2024-03-23T08:08:19;8.00;99.90
25983;DHT22;13773;48.868;10.730;2024-03-23T08:10:52;8.10;99.90
25983;DHT22;13773;48.868;10.730;2024-03-23T08:13:19;8.10;99.90
25983;DHT22;13773;48.868;10.730;2024-03-23T08:15:45;8.20;99.90
25983;DHT22;13773;48.868;10.730;2024-03-23T08:18:12;8.30;99.90
25983;DHT22;13773;48.868;10.730;2024-03-23T08:20:38;8.60;99.90
25983;DHT22;13773;48.868;10.730;2024-03-23T08:23:06;8.70;99.90
25983;DHT22;13773;48.868;10.730;2024-03-23T08:25:32;9.00;99.90
25983;DHT22;13773;48.868;10.730;2024-03-23T08:27:58;9.20;99.90
25983;DHT22;13773;48.868;10.730;2024-03-23T08:30:23;9.30;99.90
25983;DHT22;13773;48.868;10.730;2024-03-23T08:32:49;9.10;99.90
25983;DHT22;13773;48.868;10.730;2024-03-23T08:35:15;9.30;99.90
25983;DHT22;13773;48.868;10.730;2024-03-23T08:37:40;9.40;99.90
25983;DHT22;13773;48.868;10.730;2024-03-23T08:40:06;9.30;99.90
25983;DHT22;13773;48.868;10.730;2024-03-23T08:42:34;9.10;99.90
25983;DHT22;13773;48.868;10.730;2024-03-23T08:44:59;9.10;99.90
25983;DHT22;13773;48.868;10.730;2024-03-23T08:47:25;8.80;99.90
25983;DHT22;13773;48.868;10.730;2024-03-23T08:49:51;8.50;99.90
25983;DHT22;13773;48.868;10.730;2024-03-23T08:52:16;8.50;99.90
25983;DHT22;13773;48.868;10.730;2024-03-23T08:54:42;8.20;99.90
25983;DHT22;13773;48.868;10.730;2024-03-23T08:57:08;7.90;99.90
25983;DHT22;13773;48.868;10.730;2024-03-23T08:59:34;7.90;99.90
25983;DHT22;13773;48.868;10.730;2024-03-23T09:02:00;8.00;99.90
25983;DHT22;13773;48.868;10.730;2024-03-23T09:04:26;7.90;99.90
25983;DHT22;13773;48.868;10.730;2024-03-23T09:06:52;7.90;99.90
25983;DHT22;13773;48.868;10.730;2024-03-23T09:09:17;7.90;99.90
25983;DHT22;13773;48.868;10.730;2024-03-23T09:11:43;7.70;99.90
25983;DHT22;13773;48.868;10.730;2024-03-23T09:14:09;7.60;99.90
25983;DHT22;13773;48.868;10.730;2024-03-23T09:16:34;7.50;99.90
25983;DHT22;13773;48.868;10.730;2024-03-23T09:19:00;7.50;99.90
25983;DHT22;13773;48.868;10.730;2024-03-23T09:21:26;7.60;99.90
25983;DHT22;13773;48.868;10.730;2024-03-23T09:23:52;7.80;99.90
25983;DHT22;13773;48.868;10.730;2024-03-23T09:26:18;8.00;99.90
25983;DHT22;13773;48.868;10.730;2024-03-23T09:28:44;7.80;99.90
25983;DHT22;13773;48.868;10.730;2024-03-23T09:31:09;7.60;99.90
25983;DHT22;13773;48.868;10.730;2024-03-23T09:33:39;7.60;99.90
25983;DHT22;13773;48.868;10.730;2024-03-23T09:36:06;7.50;99.90
25983;DHT22;13773;48.868;10.730;2024-03-23T09:38:32;7.50;99.90
25983;DHT22;13773;48.868;10.730;2024-03-23T09:40:59;7.60;99.90
25983;DHT22;13773;48.868;10.730;2024-03-23T09:43:25;7.60;99.90
25983;DHT22;13773;48.868;10.730;2024-03-23T09:45:51;7.40;99.90
25983;DHT22;13773;48.868;10.730;2024-03-23T09:48:17;7.30;99.90
25983;DHT22;13773;48.868;10.730;2024-03-23T09:50:44;7.20;99.90
25983;DHT22;13773;48.868;10.730;2024-03-23T09:53:14;7.30;99.90
25983;DHT22;13773;48.868;10.730;2024-03-23T09:55:43;7.10;99.90
25983;DHT22;13773;48.868;10.730;2024-03-23T09:58:13;7.10;99.90
25983;DHT22;13773;48.868;10.730;2024-03-23T10:00:40;7.20;99.90
25983;DHT22;13773;48.868;10.730;2024-03-23T10:03:10;7.20;99.90
25983;DHT22;13773;48.868;10.730;2024-03-23T10:05:37;7.20;99.90
25983;DHT22;13773;48.868;10.730;2024-03-23T10:08:18;7.20;99.90
25983;DHT22;13773;48.868;10.730;2024-03-23T10:10:47;7.30;99.90
25983;DHT22;13773;48.868;10.730;2024-03-23T10:13:32;7.30;99.90
25983;DHT22;13773;48.868;10.730;2024-03-23T10:15:59;7.40;99.90
25983;DHT22;13773;48.868;10.730;2024-03-23T10:18:25;7.40;99.90
25983;DHT22;13773;48.868;10.730;2024-03-23T10:23:35;7.40;99.90
25983;DHT22;13773;48.868;10.730;2024-03-23T10:26:22;7.50;99.90
25983;DHT22;13773;48.868;10.730;2024-03-23T10:31:18;7.90;99.90
25983;DHT22;13773;48.868;10.730;2024-03-23T10:33:48;7.90;99.90
25983;DHT22;13773;48.868;10.730;2024-03-23T10:36:14;7.70;99.90
25983;DHT22;13773;48.868;10.730;2024-03-23T10:38:44;7.60;99.90
25983;DHT22;13773;48.868;10.730;2024-03-23T10:41:10;7.70;99.90
25983;DHT22;13773;48.868;10.730;2024-03-23T10:43:37;7.70;99.90
25983;DHT22;13773;48.868;10.730;2024-03-23T10:46:04;7.70;99.90
25983;DHT22;13773;48.868;10.730;2024-03-23T10:48:30;7.60;99.90
25983;DHT22;13773;48.868;10.730;2024-03-23T10:50:56;7.70;99.90
25983;DHT22;13773;48.868;10.730;2024-03-23T10:53:25;7.70;99.90
25983;DHT22;13773;48.868;10.730;2024-03-23T10:55:52;7.70;99.90
25983;DHT22;13773;48.868;10.730;2024-03-23T11:00:56;7.60;99.90
25983;DHT22;13773;48.868;10.730;2024-03-23T11:05:59;7.50;99.90
25983;DHT22;13773;48.868;10.730;2024-03-23T11:08:36;7.50;99.90
25983;DHT22;13773;48.868;10.730;2024-03-23T11:11:21;7.60;99.90
25983;DHT22;13773;48.868;10.730;2024-03-23T11:13:49;8.10;99.90
25983;DHT22;13773;48.868;10.730;2024-03-23T11:16:17;8.30;99.90
25983;DHT22;13773;48.868;10.730;2024-03-23T11:18:46;8.40;99.90
25983;DHT22;13773;48.868;10.730;2024-03-23T11:24:33;8.20;99.90
25983;DHT22;13773;48.868;10.730;2024-03-23T11:27:00;8.10;99.90
25983;DHT22;13773;48.868;10.730;2024-03-23T11:29:28;8.20;99.90
25983;DHT22;13773;48.868;10.730;2024-03-23T11:31:55;8.30;99.90
25983;DHT22;13773;48.868;10.730;2024-03-23T11:34:21;8.30;99.90
25983;DHT22;13773;48.868;10.730;2024-03-23T11:36:48;8.40;99.90
25983;DHT22;13773;48.868;10.730;2024-03-23T11:39:17;8.90;99.90
25983;DHT22;13773;48.868;10.730;2024-03-23T11:41:51;8.80;99.90
25983;DHT22;13773;48.868;10.730;2024-03-23T11:44:25;8.70;99.90
25983;DHT22;13773;48.868;10.730;2024-03-23T11:46:51;8.50;99.90
25983;DHT22;13773;48.868;10.730;2024-03-23T11:49:27;8.40;99.90
25983;DHT22;13773;48.868;10.730;2024-03-23T11:51:55;8.40;99.90
25983;DHT22;13773;48.868;10.730;2024-03-23T11:54:21;8.30;99.90
25983;DHT22;13773;48.868;10.730;2024-03-23T11:57:01;8.30;99.90
25983;DHT22;13773;48.868;10.730;2024-03-23T11:59:35;8.80;99.90
25983;DHT22;13773;48.868;10.730;2024-03-23T12:04:35;9.10;99.90
25983;DHT22;13773;48.868;10.730;2024-03-23T12:07:20;9.10;99.90
25983;DHT22;13773;48.868;10.730;2024-03-23T12:09:49;9.10;99.90
25983;DHT22;13773;48.868;10.730;2024-03-23T12:12:27;9.10;99.90
25983;DHT22;13773;48.868;10.730;2024-03-23T12:15:06;8.80;99.90
25983;DHT22;13773;48.868;10.730;2024-03-23T12:17:32;8.60;99.90
25983;DHT22;13773;48.868;10.730;2024-03-23T12:19:58;8.30;99.90
25983;DHT22;13773;48.868;10.730;2024-03-23T12:22:24;8.00;99.90
25983;DHT22;13773;48.868;10.730;2024-03-23T12:24:50;7.80;99.90
25983;DHT22;13773;48.868;10.730;2024-03-23T12:27:16;7.70;99.90
25983;DHT22;13773;48.868;10.730;2024-03-23T12:29:42;7.70;99.90
25983;DHT22;13773;48.868;10.730;2024-03-23T12:32:11;7.70;99.90
25983;DHT22;13773;48.868;10.730;2024-03-23T12:34:37;7.50;99.90
25983;DHT22;13773;48.868;10.730;2024-03-23T12:37:03;7.30;99.90
25983;DHT22;13773;48.868;10.730;2024-03-23T12:39:28;7.40;99.90
25983;DHT22;13773;48.868;10.730;2024-03-23T12:41:55;7.20;99.90
25983;DHT22;13773;48.868;10.730;2024-03-23T12:44:21;7.20;99.90
25983;DHT22;13773;48.868;10.730;2024-03-23T12:46:46;7.30;99.90
25983;DHT22;13773;48.868;10.730;2024-03-23T12:49:12;7.30;99.90
25983;DHT22;13773;48.868;10.730;2024-03-23T12:51:38;7.10;99.90
25983;DHT22;13773;48.868;10.730;2024-03-23T12:54:04;7.20;99.90
25983;DHT22;13773;48.868;10.730;2024-03-23T12:56:30;7.30;99.90
25983;DHT22;13773;48.868;10.730;2024-03-23T12:58:58;7.20;99.90
25983;DHT22;13773;48.868;10.730;2024-03-23T13:01:24;6.80;99.90
25983;DHT22;13773;48.868;10.730;2024-03-23T13:03:50;6.70;99.90
25983;DHT22;13773;48.868;10.730;2024-03-23T13:06:17;6.70;99.90
25983;DHT22;13773;48.868;10.730;2024-03-23T13:08:47;6.80;99.90
25983;DHT22;13773;48.868;10.730;2024-03-23T13:11:15;7.10;99.90
25983;DHT22;13773;48.868;10.730;2024-03-23T13:13:41;7.30;99.90
25983;DHT22;13773;48.868;10.730;2024-03-23T13:16:07;7.60;99.90
25983;DHT22;13773;48.868;10.730;2024-03-23T13:18:33;7.90;99.90
25983;DHT22;13773;48.868;10.730;2024-03-23T13:20:59;8.00;99.90
25983;DHT22;13773;48.868;10.730;2024-03-23T13:23:25;8.30;99.90
25983;DHT22;13773;48.868;10.730;2024-03-23T13:25:51;7.80;99.90
25983;DHT22;13773;48.868;10.730;2024-03-23T13:28:20;7.50;99.90
25983;DHT22;13773;48.868;10.730;2024-03-23T13:31:04;7.50;99.90
25983;DHT22;13773;48.868;10.730;2024-03-23T13:33:30;7.60;99.90
25983;DHT22;13773;48.868;10.730;2024-03-23T13:35:57;7.40;99.90
25983;DHT22;13773;48.868;10.730;2024-03-23T13:38:23;7.40;99.90
25983;DHT22;13773;48.868;10.730;2024-03-23T13:43:16;7.40;99.90
25983;DHT22;13773;48.868;10.730;2024-03-23T13:45:42;7.40;99.90
25983;DHT22;13773;48.868;10.730;2024-03-23T13:48:07;7.60;99.90
25983;DHT22;13773;48.868;10.730;2024-03-23T13:50:33;7.70;99.90
25983;DHT22;13773;48.868;10.730;2024-03-23T13:52:59;7.50;99.90
25983;DHT22;13773;48.868;10.730;2024-03-23T13:55:25;7.50;99.90
25983;DHT22;13773;48.868;10.730;2024-03-23T13:57:50;5.20;99.90
25983;DHT22;13773;48.868;10.730;2024-03-23T14:00:16;7.70;99.90
25983;DHT22;13773;48.868;10.730;2024-03-23T14:02:44;7.80;99.90
25983;DHT22;13773;48.868;10.730;2024-03-23T14:05:10;7.90;99.90
25983;DHT22;13773;48.868;10.730;2024-03-23T14:07:36;7.90;99.90
25983;DHT22;13773;48.868;10.730;2024-03-23T14:10:03;8.30;99.90
25983;DHT22;13773;48.868;10.730;2024-03-23T14:12:30;8.40;99.90
25983;DHT22;13773;48.868;10.730;2024-03-23T14:14:56;8.40;99.90
25983;DHT22;13773;48.868;10.730;2024-03-23T14:17:21;8.20;99.90
25983;DHT22;13773;48.868;10.730;2024-03-23T14:19:47;8.00;99.90
25983;DHT22;13773;48.868;10.730;2024-03-23T14:22:13;8.10;99.90
25983;DHT22;13773;48.868;10.730;2024-03-23T14:24:38;8.30;99.90
25983;DHT22;13773;48.868;10.730;2024-03-23T14:27:04;8.50;99.90
25983;DHT22;13773;48.868;10.730;2024-03-23T14:29:32;8.50;99.90
25983;DHT22;13773;48.868;10.730;2024-03-23T14:31:59;8.70;99.90
25983;DHT22;13773;48.868;10.730;2024-03-23T14:34:26;8.50;99.90
25983;DHT22;13773;48.868;10.730;2024-03-23T14:36:53;8.60;99.90
25983;DHT22;13773;48.868;10.730;2024-03-23T14:39:23;8.40;99.90
25983;DHT22;13773;48.868;10.730;2024-03-23T14:41:50;8.20;99.90
25983;DHT22;13773;48.868;10.730;2024-03-23T14:44:16;8.30;99.90
25983;DHT22;13773;48.868;10.730;2024-03-23T14:46:42;8.20;99.90
25983;DHT22;13773;48.868;10.730;2024-03-23T14:49:08;8.40;99.90
25983;DHT22;13773;48.868;10.730;2024-03-23T14:51:34;8.40;99.90
25983;DHT22;13773;48.868;10.730;2024-03-23T14:54:00;8.50;99.90
25983;DHT22;13773;48.868;10.730;2024-03-23T14:56:25;8.60;99.90
25983;DHT22;13773;48.868;10.730;2024-03-23T14:58:54;8.60;99.90
25983;DHT22;13773;48.868;10.730;2024-03-23T15:01:21;8.60;99.90
25983;DHT22;13773;48.868;10.730;2024-03-23T15:03:47;8.50;99.90
25983;DHT22;13773;48.868;10.730;2024-03-23T15:06:13;8.50;99.90
25983;DHT22;13773;48.868;10.730;2024-03-23T15:08:39;8.50;99.90
25983;DHT22;13773;48.868;10.730;2024-03-23T15:11:06;8.50;99.90
25983;DHT22;13773;48.868;10.730;2024-03-23T15:13:35;8.60;99.90
25983;DHT22;13773;48.868;10.730;2024-03-23T15:16:02;8.70;99.90
25983;DHT22;13773;48.868;10.730;2024-03-23T15:18:31;8.60;99.90
25983;DHT22;13773;48.868;10.730;2024-03-23T15:20:59;8.60;99.90
25983;DHT22;13773;48.868;10.730;2024-03-23T15:23:29;8.60;99.90
25983;DHT22;13773;48.868;10.730;2024-03-23T15:25:55;8.30;99.90
25983;DHT22;13773;48.868;10.730;2024-03-23T15:28:22;8.10;99.90
25983;DHT22;13773;48.868;10.730;2024-03-23T15:30:48;7.90;99.90
25983;DHT22;13773;48.868;10.730;2024-03-23T15:33:14;6.80;99.90
25983;DHT22;13773;48.868;10.730;2024-03-23T15:35:39;5.30;99.90
25983;DHT22;13773;48.868;10.730;2024-03-23T15:38:05;4.50;99.90
25983;DHT22;13773;48.868;10.730;2024-03-23T15:40:31;3.80;99.90
25983;DHT22;13773;48.868;10.730;2024-03-23T15:42:56;3.40;99.90
25983;DHT22;13773;48.868;10.730;2024-03-23T15:45:22;3.30;99.90
25983;DHT22;13773;48.868;10.730;2024-03-23T15:47:48;3.20;99.90
25983;DHT22;13773;48.868;10.730;2024-03-23T15:50:14;3.20;99.90
25983;DHT22;13773;48.868;10.730;2024-03-23T15:52:40;3.20;99.90
25983;DHT22;13773;48.868;10.730;2024-03-23T15:55:06;3.20;99.90
25983;DHT22;13773;48.868;10.730;2024-03-23T15:57:35;3.20;99.90
25983;DHT22;13773;48.868;10.730;2024-03-23T16:00:01;3.30;99.90
25983;DHT22;13773;48.868;10.730;2024-03-23T16:02:28;6.30;99.90
25983;DHT22;13773;48.868;10.730;2024-03-23T16:04:54;3.70;99.90
25983;DHT22;13773;48.868;10.730;2024-03-23T16:07:20;4.00;99.90
25983;DHT22;13773;48.868;10.730;2024-03-23T16:09:46;4.30;99.90
25983;DHT22;13773;48.868;10.730;2024-03-23T16:12:12;4.50;99.90
25983;DHT22;13773;48.868;10.730;2024-03-23T16:14:37;4.70;99.90
25983;DHT22;13773;48.868;10.730;2024-03-23T16:17:03;4.80;99.90
25983;DHT22;13773;48.868;10.730;2024-03-23T16:19:29;4.80;99.90
25983;DHT22;13773;48.868;10.730;2024-03-23T16:21:54;4.90;99.90
25983;DHT22;13773;48.868;10.730;2024-03-23T16:24:21;5.00;99.90
25983;DHT22;13773;48.868;10.730;2024-03-23T16:26:47;5.10;99.90
25983;DHT22;13773;48.868;10.730;2024-03-23T16:29:12;5.00;99.90
25983;DHT22;13773;48.868;10.730;2024-03-23T16:31:38;4.70;99.90
25983;DHT22;13773;48.868;10.730;2024-03-23T16:34:04;4.60;99.90
25983;DHT22;13773;48.868;10.730;2024-03-23T16:36:30;4.70;99.90
25983;DHT22;13773;48.868;10.730;2024-03-23T16:38:55;4.70;99.90
25983;DHT22;13773;48.868;10.730;2024-03-23T16:41:21;4.80;99.90
25983;DHT22;13773;48.868;10.730;2024-03-23T16:43:47;4.80;99.90